createdAt,value
2023-05-23T00:01:55.213Z,11.20
2023-05-23T00:04:27.329Z,15.50
2023-05-23T00:06:54.999Z,7.77
2023-05-23T00:09:22.814Z,5.20
2023-05-23T00:11:50.218Z,8.90
2023-05-23T00:14:18.032Z,2.47
2023-05-23T00:16:46.680Z,4.33
2023-05-23T00:19:17.143Z,4.07
2023-05-23T00:21:51.163Z,6.67
2023-05-23T00:24:20.605Z,9.17
2023-05-23T00:26:48.221Z,4.20
2023-05-23T00:29:16.979Z,6.60
2023-05-23T00:34:20.032Z,7.90
2023-05-23T00:36:48.147Z,5.50
2023-05-23T00:39:24.926Z,7.07
2023-05-23T00:41:53.293Z,7.40
2023-05-23T00:44:22.109Z,119.67
2023-05-23T00:46:56.692Z,28.27
2023-05-23T00:49:25.176Z,9.07
2023-05-23T00:51:52.862Z,7.97
2023-05-23T00:54:31.663Z,13.73
2023-05-23T00:59:27.569Z,19.90
2023-05-23T01:01:57.226Z,8.00
2023-05-23T01:04:28.589Z,58.73
2023-05-23T01:06:56.787Z,43.07
2023-05-23T01:09:26.177Z,81.60
2023-05-23T01:12:06.958Z,74.95
2023-05-23T01:14:46.718Z,100.93
2023-05-23T01:17:22.224Z,68.93
2023-05-23T01:20:01.458Z,34.13
2023-05-23T01:22:48.880Z,45.13
2023-05-23T01:25:40.350Z,28.30
2023-05-23T01:28:12.860Z,30.33
2023-05-23T01:30:42.279Z,37.20
2023-05-23T01:33:12.066Z,34.75
2023-05-23T01:35:40.483Z,30.63
2023-05-23T01:38:08.393Z,31.48
2023-05-23T01:40:36.504Z,25.70
2023-05-23T01:43:04.602Z,16.37
2023-05-23T01:45:32.704Z,20.48
2023-05-23T01:48:02.679Z,35.70
2023-05-23T01:50:32.011Z,24.03
2023-05-23T01:53:00.544Z,28.40
2023-05-23T01:55:29.039Z,23.35
2023-05-23T01:57:57.917Z,18.03
2023-05-23T02:00:25.875Z,47.97
2023-05-23T02:02:53.664Z,20.27
2023-05-23T02:05:21.600Z,16.07
2023-05-23T02:07:49.009Z,41.20
2023-05-23T02:10:18.244Z,47.50
2023-05-23T02:12:45.953Z,35.50
2023-05-23T02:15:13.490Z,42.47
2023-05-23T02:17:41.678Z,47.33
2023-05-23T02:20:10.434Z,8.13
2023-05-23T02:22:38.919Z,12.18
2023-05-23T02:25:07.037Z,12.90
2023-05-23T02:27:34.366Z,11.20
2023-05-23T02:30:02.323Z,16.03
2023-05-23T02:32:31.265Z,12.02
2023-05-23T02:34:59.824Z,14.30
2023-05-23T02:37:27.456Z,55.03
2023-05-23T02:39:54.892Z,24.47
2023-05-23T02:42:22.664Z,9.43
2023-05-23T02:44:50.721Z,20.27
2023-05-23T02:47:18.389Z,17.07
2023-05-23T02:49:49.141Z,16.93
2023-05-23T02:52:18.158Z,13.40
2023-05-23T02:54:45.963Z,27.57
2023-05-23T02:57:13.852Z,21.87
2023-05-23T02:59:43.213Z,32.17
2023-05-23T03:02:11.135Z,27.10
2023-05-23T03:04:38.765Z,31.20
2023-05-23T03:07:11.581Z,28.93
2023-05-23T03:09:44.612Z,43.10
2023-05-23T03:12:13.403Z,16.83
2023-05-23T03:14:40.741Z,76.90
2023-05-23T03:17:08.107Z,44.90
2023-05-23T03:19:36.783Z,16.30
2023-05-23T03:22:04.454Z,37.17
2023-05-23T03:24:42.618Z,43.40
2023-05-23T03:27:11.799Z,25.17
2023-05-23T03:29:39.302Z,33.27
2023-05-23T03:32:07.408Z,17.10
2023-05-23T03:34:36.708Z,18.73
2023-05-23T03:37:04.427Z,7.15
2023-05-23T03:39:32.004Z,14.83
2023-05-23T03:41:59.815Z,40.70
2023-05-23T03:44:27.602Z,19.10
2023-05-23T03:46:55.066Z,39.23
2023-05-23T03:49:22.784Z,16.87
2023-05-23T03:51:51.226Z,9.47
2023-05-23T03:54:19.315Z,17.70
2023-05-23T03:56:47.021Z,9.80
2023-05-23T03:59:15.557Z,7.90
2023-05-23T04:01:43.069Z,34.33
2023-05-23T04:04:11.039Z,4.60
2023-05-23T04:07:03.104Z,3.40
2023-05-23T04:09:35.002Z,9.90
2023-05-23T04:12:03.835Z,9.07
2023-05-23T04:14:36.484Z,14.80
2023-05-23T04:17:03.959Z,6.17
2023-05-23T04:22:18.463Z,11.77
2023-05-23T04:24:47.494Z,4.87
2023-05-23T04:27:15.382Z,8.30
2023-05-23T04:29:44.763Z,4.03
2023-05-23T04:32:18.721Z,16.17
2023-05-23T04:34:51.410Z,13.60
2023-05-23T04:37:28.381Z,10.37
2023-05-23T04:40:19.479Z,10.73
2023-05-23T04:42:51.653Z,16.07
2023-05-23T04:45:33.008Z,7.00
2023-05-23T04:48:03.717Z,10.47
2023-05-23T04:50:33.524Z,17.95
2023-05-23T04:53:07.474Z,33.47
2023-05-23T04:55:37.698Z,16.47
2023-05-23T04:58:08.180Z,15.77
2023-05-23T05:00:36.417Z,12.13
2023-05-23T05:03:06.816Z,4.13
2023-05-23T05:05:34.756Z,32.60
2023-05-23T05:08:06.325Z,3.57
2023-05-23T05:10:38.843Z,7.03
2023-05-23T05:13:09.737Z,10.43
2023-05-23T05:15:40.401Z,9.80
2023-05-23T05:18:08.821Z,12.57
2023-05-23T05:20:36.373Z,5.50
2023-05-23T05:23:03.995Z,11.77
2023-05-23T05:25:33.109Z,2.97
2023-05-23T05:28:10.517Z,4.37
2023-05-23T05:30:40.572Z,2.60
2023-05-23T05:33:08.438Z,18.03
2023-05-23T05:35:36.104Z,4.37
2023-05-23T05:38:05.119Z,2.50
2023-05-23T05:40:33.007Z,5.97
2023-05-23T05:43:00.913Z,5.40
2023-05-23T05:45:28.784Z,6.10
2023-05-23T05:47:56.295Z,4.27
2023-05-23T05:50:24.034Z,3.07
2023-05-23T05:52:51.814Z,3.73
2023-05-23T05:55:19.184Z,5.30
2023-05-23T05:57:46.853Z,5.97
2023-05-23T06:00:15.814Z,2.72
2023-05-23T06:02:55.341Z,3.23
2023-05-23T06:05:28.206Z,7.00
2023-05-23T06:07:56.073Z,3.70
2023-05-23T06:10:27.185Z,5.27
2023-05-23T06:12:55.255Z,2.70
2023-05-23T06:15:22.894Z,4.27
2023-05-23T06:17:52.077Z,3.77
2023-05-23T06:20:31.944Z,4.70
2023-05-23T06:23:05.749Z,4.83
2023-05-23T06:25:33.591Z,5.50
2023-05-23T06:28:01.685Z,3.53
2023-05-23T06:30:30.670Z,3.62
2023-05-23T06:32:58.201Z,3.10
2023-05-23T06:35:26.158Z,5.03
2023-05-23T06:37:54.091Z,5.23
2023-05-23T06:40:21.722Z,3.43
2023-05-23T06:43:05.367Z,3.87
2023-05-23T06:45:38.769Z,3.60
2023-05-23T06:48:07.227Z,3.30
2023-05-23T06:50:35.260Z,5.32
2023-05-23T06:53:03.386Z,5.10
2023-05-23T06:55:33.037Z,8.47
2023-05-23T06:58:04.164Z,6.47
2023-05-23T07:00:33.160Z,6.67
2023-05-23T07:03:03.483Z,4.33
2023-05-23T07:05:40.058Z,4.73
2023-05-23T07:08:15.272Z,4.00
2023-05-23T07:10:46.931Z,7.13
2023-05-23T07:13:22.302Z,4.23
2023-05-23T07:15:50.288Z,4.90
2023-05-23T07:18:19.510Z,4.60
2023-05-23T07:20:51.553Z,6.00
2023-05-23T07:23:31.046Z,7.43
2023-05-23T07:26:03.443Z,4.73
2023-05-23T07:28:33.354Z,3.90
2023-05-23T07:31:01.116Z,7.13
2023-05-23T07:33:30.044Z,5.28
2023-05-23T07:36:01.569Z,5.60
2023-05-23T07:38:29.506Z,4.43
2023-05-23T07:41:10.083Z,4.50
2023-05-23T07:43:39.356Z,10.57
2023-05-23T07:46:07.400Z,7.57
2023-05-23T07:48:35.508Z,8.18
2023-05-23T07:51:04.286Z,7.45
2023-05-23T07:53:32.136Z,9.47
2023-05-23T07:55:59.944Z,5.93
2023-05-23T07:58:28.310Z,8.23
2023-05-23T08:01:24.585Z,6.72
2023-05-23T08:04:01.734Z,6.07
2023-05-23T08:06:31.868Z,7.72
2023-05-23T08:09:14.181Z,7.15
2023-05-23T08:11:45.729Z,4.53
2023-05-23T08:16:42.186Z,5.10
2023-05-23T08:19:12.358Z,8.20
2023-05-23T08:21:43.435Z,6.97
2023-05-23T08:24:14.923Z,6.07
2023-05-23T08:26:46.561Z,9.35
2023-05-23T08:29:17.226Z,7.12
2023-05-23T08:31:45.810Z,5.00
2023-05-23T08:34:16.308Z,5.80
2023-05-23T08:36:45.628Z,8.00
2023-05-23T08:39:26.210Z,6.53
2023-05-23T08:41:57.126Z,8.40
2023-05-23T08:44:25.862Z,5.90
2023-05-23T08:46:54.359Z,13.65
2023-05-23T08:49:23.329Z,4.62
2023-05-23T08:51:56.363Z,7.07
2023-05-23T08:54:25.684Z,5.65
2023-05-23T08:56:53.478Z,7.43
2023-05-23T08:59:22.746Z,4.95
2023-05-23T09:01:52.667Z,7.50
2023-05-23T09:04:20.606Z,5.43
2023-05-23T09:06:55.821Z,7.35
2023-05-23T09:09:25.769Z,8.80
2023-05-23T09:11:57.826Z,5.45
2023-05-23T09:14:32.371Z,5.20
2023-05-23T09:17:06.783Z,4.95
2023-05-23T09:19:46.277Z,8.32
2023-05-23T09:22:36.746Z,4.05
2023-05-23T09:25:10.490Z,17.95
2023-05-23T09:27:38.596Z,6.57
2023-05-23T09:30:11.294Z,5.87
2023-05-23T09:32:39.282Z,3.83
2023-05-23T09:35:14.203Z,4.75
2023-05-23T09:37:47.212Z,7.68
2023-05-23T09:40:16.779Z,6.85
2023-05-23T09:42:46.895Z,5.10
2023-05-23T09:45:17.059Z,8.02
2023-05-23T09:47:54.171Z,12.73
2023-05-23T09:50:23.338Z,5.37
2023-05-23T09:52:54.199Z,5.57
2023-05-23T09:55:25.690Z,4.55
2023-05-23T09:57:59.000Z,3.22
2023-05-23T10:00:28.995Z,4.35
2023-05-23T10:03:14.872Z,6.57
2023-05-23T10:05:49.807Z,6.37
2023-05-23T10:08:29.910Z,7.70
2023-05-23T10:11:15.196Z,4.78
2023-05-23T10:13:56.137Z,9.77
2023-05-23T10:16:55.913Z,5.57
2023-05-23T10:19:41.619Z,6.37
2023-05-23T10:22:17.229Z,7.37
2023-05-23T10:24:53.717Z,4.15
2023-05-23T10:27:21.492Z,5.22
2023-05-23T10:29:52.532Z,6.78
2023-05-23T10:32:21.182Z,3.85
2023-05-23T10:35:04.373Z,4.35
2023-05-23T10:37:53.861Z,6.07
2023-05-23T10:40:40.653Z,8.38
2023-05-23T10:43:39.765Z,4.00
2023-05-23T10:46:24.818Z,5.62
2023-05-23T10:48:57.802Z,4.18
2023-05-23T10:51:41.890Z,5.22
2023-05-23T10:54:17.349Z,3.95
2023-05-23T10:56:45.836Z,4.53
2023-05-23T10:59:26.584Z,5.25
2023-05-23T11:01:56.616Z,7.37
2023-05-23T11:04:29.586Z,8.70
2023-05-23T11:06:58.102Z,3.95
2023-05-23T11:09:26.075Z,5.90
2023-05-23T11:11:55.257Z,4.37
2023-05-23T11:14:55.162Z,4.32
2023-05-23T11:17:35.458Z,2.58
2023-05-23T11:20:06.252Z,6.60
2023-05-23T11:22:35.201Z,7.22
2023-05-23T11:25:08.033Z,6.18
2023-05-23T11:27:40.969Z,6.25
2023-05-23T11:30:10.278Z,4.75
2023-05-23T11:32:38.044Z,6.95
2023-05-23T11:35:07.887Z,8.98
2023-05-23T11:37:36.174Z,7.07
2023-05-23T11:40:25.947Z,6.40
2023-05-23T11:42:57.240Z,5.72
2023-05-23T11:45:25.142Z,5.78
2023-05-23T11:47:53.359Z,6.75
2023-05-23T11:50:21.180Z,4.57
2023-05-23T11:52:52.169Z,5.15
2023-05-23T11:55:21.567Z,4.47
2023-05-23T11:57:50.631Z,4.97
2023-05-23T12:00:19.649Z,6.15
2023-05-23T12:02:49.062Z,4.75
2023-05-23T12:05:16.963Z,5.22
2023-05-23T12:07:49.822Z,6.37
2023-05-23T12:10:18.695Z,6.15
2023-05-23T12:12:46.201Z,9.32
2023-05-23T12:15:14.062Z,7.18
2023-05-23T12:17:48.778Z,5.10
2023-05-23T12:20:16.458Z,5.75
2023-05-23T12:22:44.366Z,7.18
2023-05-23T12:25:12.103Z,7.45
2023-05-23T12:27:42.765Z,4.18
2023-05-23T12:30:17.446Z,5.82
2023-05-23T12:32:46.968Z,4.32
2023-05-23T12:35:16.318Z,6.82
2023-05-23T12:37:47.483Z,6.28
2023-05-23T12:40:19.541Z,3.87
2023-05-23T12:42:55.283Z,4.05
2023-05-23T12:45:25.132Z,6.18
2023-05-23T12:47:54.104Z,5.62
2023-05-23T12:50:22.351Z,4.70
2023-05-23T12:52:50.125Z,6.07
2023-05-23T12:55:17.607Z,4.12
2023-05-23T12:57:45.238Z,6.47
2023-05-23T13:00:13.527Z,4.78
2023-05-23T13:02:41.496Z,4.25
2023-05-23T13:05:09.563Z,5.80
2023-05-23T13:07:38.057Z,6.25
2023-05-23T13:10:06.397Z,5.22
2023-05-23T13:12:34.753Z,6.28
2023-05-23T13:15:02.597Z,4.55
2023-05-23T13:17:31.944Z,7.55
2023-05-23T13:19:59.317Z,9.85
2023-05-23T13:22:27.249Z,6.93
2023-05-23T13:24:54.676Z,6.47
2023-05-23T13:27:22.116Z,7.37
2023-05-23T13:29:49.901Z,6.07
2023-05-23T13:32:17.691Z,5.95
2023-05-23T13:34:45.175Z,7.28
2023-05-23T13:37:12.955Z,10.70
2023-05-23T13:39:40.438Z,6.68
2023-05-23T13:42:08.419Z,7.03
2023-05-23T13:44:36.693Z,5.28
2023-05-23T13:47:14.599Z,7.12
2023-05-23T13:49:43.234Z,3.72
2023-05-23T13:52:10.899Z,5.68
2023-05-23T13:54:38.612Z,7.93
2023-05-23T13:57:07.024Z,4.93
2023-05-23T13:59:34.576Z,6.78
2023-05-23T14:02:02.186Z,4.37
2023-05-23T14:04:29.964Z,6.68
2023-05-23T14:06:57.279Z,5.43
2023-05-23T14:09:24.753Z,4.78
2023-05-23T14:11:52.588Z,5.28
2023-05-23T14:14:20.123Z,5.85
2023-05-23T14:16:47.790Z,6.30
2023-05-23T14:19:15.569Z,4.97
2023-05-23T14:21:44.967Z,8.38
2023-05-23T14:24:12.695Z,7.85
2023-05-23T14:26:40.381Z,5.90
2023-05-23T14:29:07.969Z,5.62
2023-05-23T14:31:35.832Z,4.57
2023-05-23T14:34:03.770Z,7.22
2023-05-23T14:36:31.927Z,7.55
2023-05-23T14:38:59.321Z,4.62
2023-05-23T14:41:29.130Z,5.18
2023-05-23T14:43:56.679Z,4.25
2023-05-23T14:46:24.230Z,6.50
2023-05-23T14:48:52.052Z,7.07
2023-05-23T14:51:31.099Z,6.82
2023-05-23T14:54:02.712Z,6.18
2023-05-23T14:56:30.118Z,10.38
2023-05-23T14:58:57.740Z,7.72
2023-05-23T15:01:25.533Z,8.68
2023-05-23T15:03:53.115Z,3.72
2023-05-23T15:06:20.578Z,5.17
2023-05-23T15:08:48.260Z,6.95
2023-05-23T15:11:15.725Z,5.35
2023-05-23T15:13:43.086Z,9.32
2023-05-23T15:16:10.942Z,4.50
2023-05-23T15:18:41.901Z,7.67
2023-05-23T15:21:09.851Z,5.80
2023-05-23T15:23:37.740Z,6.07
2023-05-23T15:26:05.084Z,5.53
2023-05-23T15:28:32.524Z,5.72
2023-05-23T15:31:00.414Z,5.78
2023-05-23T15:33:27.844Z,7.45
2023-05-23T15:35:55.407Z,4.30
2023-05-23T15:38:23.092Z,4.72
2023-05-23T15:40:52.779Z,4.30
2023-05-23T15:43:20.827Z,3.83
2023-05-23T15:45:50.147Z,4.20
2023-05-23T15:48:17.883Z,4.12
2023-05-23T15:50:45.508Z,4.45
2023-05-23T15:53:13.424Z,7.95
2023-05-23T15:55:42.654Z,4.95
2023-05-23T15:58:11.423Z,7.82
2023-05-23T16:00:39.576Z,5.43
2023-05-23T16:05:34.790Z,7.03
2023-05-23T16:08:02.395Z,5.00
2023-05-23T16:10:30.151Z,4.80
2023-05-23T16:12:57.516Z,6.60
2023-05-23T16:15:25.021Z,7.50
2023-05-23T16:17:52.867Z,11.20
2023-05-23T16:20:20.318Z,8.48
2023-05-23T16:22:47.688Z,4.60
2023-05-23T16:25:15.388Z,3.78
2023-05-23T16:27:42.873Z,4.07
2023-05-23T16:30:10.801Z,5.07
2023-05-23T16:35:06.584Z,10.93
2023-05-23T16:37:33.984Z,9.25
2023-05-23T16:40:01.735Z,5.93
2023-05-23T16:42:29.264Z,6.75
2023-05-23T16:44:57.035Z,15.30
2023-05-23T16:47:24.922Z,10.13
2023-05-23T16:49:52.360Z,7.03
2023-05-23T16:52:19.803Z,9.73
2023-05-23T16:54:47.558Z,8.63
2023-05-23T16:57:14.947Z,7.53
2023-05-23T16:59:42.786Z,6.72
2023-05-23T17:02:14.088Z,6.90
2023-05-23T17:04:41.833Z,6.45
2023-05-23T17:07:09.737Z,7.50
2023-05-23T17:09:37.445Z,11.65
2023-05-23T17:12:05.283Z,8.13
2023-05-23T17:14:32.732Z,5.33
2023-05-23T17:17:00.915Z,6.90
2023-05-23T17:19:28.831Z,6.70
2023-05-23T17:21:56.546Z,11.60
2023-05-23T17:24:24.288Z,7.57
2023-05-23T17:26:51.739Z,5.18
2023-05-23T17:29:20.589Z,6.70
2023-05-23T17:31:48.550Z,6.53
2023-05-23T17:34:16.637Z,5.50
2023-05-23T17:36:44.060Z,6.97
2023-05-23T17:39:11.821Z,12.48
2023-05-23T17:41:39.214Z,8.02
2023-05-23T17:44:06.819Z,7.97
2023-05-23T17:46:34.570Z,7.17
2023-05-23T17:49:02.032Z,8.45
2023-05-23T17:51:29.389Z,17.48
2023-05-23T17:54:02.712Z,13.15
2023-05-23T17:56:30.955Z,12.68
2023-05-23T17:58:58.708Z,11.55
2023-05-23T18:01:27.287Z,18.60
2023-05-23T18:03:55.539Z,18.85
2023-05-23T18:06:23.161Z,18.60
2023-05-23T18:08:53.889Z,15.65
2023-05-23T18:11:23.365Z,19.17
2023-05-23T18:13:51.993Z,22.62
2023-05-23T18:16:19.939Z,24.50
2023-05-23T18:18:48.247Z,21.90
2023-05-23T18:21:18.064Z,18.77
2023-05-23T18:23:45.680Z,11.40
2023-05-23T18:26:13.575Z,9.73
2023-05-23T18:28:41.350Z,16.42
2023-05-23T18:31:08.720Z,17.05
2023-05-23T18:33:36.934Z,17.42
2023-05-23T18:36:04.871Z,13.97
2023-05-23T18:38:32.382Z,13.77
2023-05-23T18:41:00.466Z,11.50
2023-05-23T18:43:28.125Z,11.53
2023-05-23T18:45:55.552Z,20.60
2023-05-23T18:48:23.356Z,19.40
2023-05-23T18:50:50.759Z,12.17
2023-05-23T18:53:18.193Z,15.40
2023-05-23T18:55:46.037Z,12.17
2023-05-23T18:58:13.518Z,12.23
2023-05-23T19:00:41.174Z,12.50
2023-05-23T19:03:09.157Z,10.40
2023-05-23T19:05:36.991Z,13.97
2023-05-23T19:08:04.396Z,10.00
2023-05-23T19:10:32.257Z,14.50
2023-05-23T19:12:59.694Z,12.13
2023-05-23T19:15:27.084Z,11.10
2023-05-23T19:17:54.814Z,10.87
2023-05-23T19:20:22.294Z,8.03
2023-05-23T19:22:52.244Z,7.63
2023-05-23T19:25:21.795Z,8.43
2023-05-23T19:27:49.296Z,10.68
2023-05-23T19:30:16.948Z,15.90
2023-05-23T19:32:44.736Z,12.93
2023-05-23T19:35:14.733Z,11.70
2023-05-23T19:37:43.881Z,11.63
2023-05-23T19:40:12.252Z,9.57
2023-05-23T19:42:39.698Z,10.98
2023-05-23T19:45:07.906Z,13.53
2023-05-23T19:47:36.268Z,10.88
2023-05-23T19:50:03.879Z,14.27
2023-05-23T19:52:31.232Z,18.40
2023-05-23T19:54:59.666Z,21.43
2023-05-23T19:57:29.321Z,14.00
2023-05-23T19:59:57.355Z,9.85
2023-05-23T20:02:25.269Z,9.23
2023-05-23T20:04:53.107Z,14.30
2023-05-23T20:07:20.462Z,9.40
2023-05-23T20:09:47.976Z,7.40
2023-05-23T20:12:15.845Z,6.40
2023-05-23T20:14:43.312Z,10.00
2023-05-23T20:17:10.896Z,9.03
2023-05-23T20:19:41.468Z,7.80
2023-05-23T20:22:08.866Z,6.20
2023-05-23T20:24:36.431Z,8.73
2023-05-23T20:27:04.305Z,6.77
2023-05-23T20:29:34.646Z,9.03
2023-05-23T20:32:02.464Z,13.73
2023-05-23T20:34:30.262Z,11.07
2023-05-23T20:36:57.749Z,7.27
2023-05-23T20:39:25.214Z,13.00
2023-05-23T20:41:53.857Z,12.53
2023-05-23T20:44:21.219Z,9.35
2023-05-23T20:46:48.717Z,7.27
2023-05-23T20:49:16.844Z,7.80
2023-05-23T20:51:44.417Z,10.73
2023-05-23T20:54:12.977Z,15.07
2023-05-23T20:56:41.003Z,17.95
2023-05-23T20:59:08.484Z,20.80
2023-05-23T21:01:36.080Z,10.23
2023-05-23T21:04:04.034Z,11.23
2023-05-23T21:06:32.765Z,9.63
2023-05-23T21:09:00.188Z,11.73
2023-05-23T21:11:28.135Z,11.23
2023-05-23T21:13:55.593Z,8.93
2023-05-23T21:16:23.053Z,12.23
2023-05-23T21:18:50.928Z,12.23
2023-05-23T21:21:18.447Z,12.47
2023-05-23T21:23:45.881Z,13.73
2023-05-23T21:26:13.682Z,11.87
2023-05-23T21:28:41.312Z,19.40
2023-05-23T21:31:09.116Z,9.97
2023-05-23T21:33:36.862Z,14.13
2023-05-23T21:36:04.354Z,12.67
2023-05-23T21:38:31.951Z,15.93
2023-05-23T21:40:59.826Z,11.37
2023-05-23T21:43:27.290Z,10.40
2023-05-23T21:45:54.769Z,12.03
2023-05-23T21:48:22.503Z,9.90
2023-05-23T21:50:49.909Z,11.17
2023-05-23T21:53:17.403Z,10.57
2023-05-23T21:55:45.780Z,9.40
2023-05-23T21:58:13.204Z,13.17
2023-05-23T22:00:40.775Z,10.13
2023-05-23T22:03:08.605Z,9.23
2023-05-23T22:05:36.090Z,8.40
2023-05-23T22:08:03.824Z,12.23
2023-05-23T22:10:31.875Z,7.73
2023-05-23T22:12:59.254Z,11.80
2023-05-23T22:15:26.749Z,10.70
2023-05-23T22:17:54.594Z,14.90
2023-05-23T22:20:23.518Z,10.40
2023-05-23T22:22:51.148Z,11.23
2023-05-23T22:25:18.940Z,10.37
2023-05-23T22:27:46.326Z,9.53
2023-05-23T22:30:14.194Z,6.80
2023-05-23T22:32:42.065Z,13.15
2023-05-23T22:35:09.841Z,8.07
2023-05-23T22:37:37.139Z,12.10
2023-05-23T22:40:05.731Z,11.57
2023-05-23T22:42:33.099Z,9.15
2023-05-23T22:45:00.372Z,12.67
2023-05-23T22:47:29.439Z,17.20
2023-05-23T22:49:56.854Z,8.05
2023-05-23T22:52:24.128Z,6.60
2023-05-23T22:54:51.992Z,7.87
2023-05-23T22:57:19.316Z,9.30
2023-05-23T22:59:46.709Z,9.83
2023-05-23T23:02:14.497Z,7.60
2023-05-23T23:04:41.928Z,8.07
2023-05-23T23:07:09.278Z,8.00
2023-05-23T23:09:37.222Z,9.03
2023-05-23T23:12:04.771Z,8.73
2023-05-23T23:14:32.138Z,8.50
2023-05-23T23:16:59.848Z,9.00
2023-05-23T23:19:29.884Z,10.83
2023-05-23T23:21:57.171Z,7.53
2023-05-23T23:24:24.871Z,10.33
2023-05-23T23:26:52.309Z,9.60
2023-05-23T23:29:19.696Z,6.17
2023-05-23T23:31:47.424Z,8.10
2023-05-23T23:34:14.837Z,9.93
2023-05-23T23:36:42.259Z,12.83
2023-05-23T23:39:09.910Z,13.17
2023-05-23T23:41:37.269Z,7.43
2023-05-23T23:44:04.626Z,6.90
2023-05-23T23:46:32.448Z,8.90
2023-05-23T23:48:59.969Z,9.97
2023-05-23T23:51:27.369Z,10.33
2023-05-23T23:53:55.207Z,10.97
2023-05-23T23:56:23.022Z,6.90
2023-05-23T23:58:51.118Z,10.97
